»·PEaware :: N2317R KOTH-KPDX

N2317R :: KOTH-KPDX

FLIGHT INFORMATION

Flight Status: Arrived
Operator: Privately registered:
United States
More flights under this callsign
Pilot: James W. (17580)
Aircraft: PILATUS PC-12 EAGLE
(PC12)
More flights by this aircraft type
Origin: KOTH North Bend Mun
United States
Destination: KPDX Portland Intl
United States
More flights between these airports :: More routes between these airports
Route: +OTH6 OTH V287 UBG
File this flight plan on PilotEdge
Remarks:
Altitude:
(Current/Filed)
7,000ft
Speed:
(Current/Filed)
230kts
Departed: 31-Mar-18 08:27 PM
Arrived: 31-Mar-18 09:21 PM
Distance/Time
Traveled:
148nm/0:54
Distance/Time
To Go:
Arrived

Flight Plot

Page will automatically refresh every two minutes.

Flight plan parsing failed; only flown route is shown


Map Options




Map Legend


Flown Route
Filed Route
Departure Airport
Arrival Airport
Navaid (VOR, NDB)
Fix

Horizontal Profiles

Position Reports

Time Latitude Longitude Heading Altitude Ground
Speed
31-Mar-18 19:58 43.415434 -124.245319 336 8ft 0kts
31-Mar-18 19:59 43.415437 -124.245287 341 8ft 0kts
31-Mar-18 20:04 43.415414 -124.245421 332 8ft 0kts
31-Mar-18 20:05 43.415414 -124.245421 332 8ft 0kts
31-Mar-18 20:06 43.415414 -124.245421 332 8ft 0kts
31-Mar-18 20:07 43.415414 -124.245421 332 8ft 0kts
31-Mar-18 20:08 43.415414 -124.245421 332 8ft 0kts
31-Mar-18 20:09 43.415414 -124.245421 332 8ft 0kts
31-Mar-18 20:10 43.415414 -124.245421 332 8ft 0kts
31-Mar-18 20:11 43.415414 -124.245421 332 8ft 0kts
31-Mar-18 20:12 43.415414 -124.245421 332 8ft 0kts
31-Mar-18 20:13 43.415414 -124.245421 332 8ft 0kts
31-Mar-18 20:14 43.415414 -124.245421 332 8ft 0kts
31-Mar-18 20:15 43.415414 -124.245421 332 8ft 0kts
31-Mar-18 20:16 43.415414 -124.245421 332 8ft 0kts
31-Mar-18 20:17 43.415414 -124.245421 332 8ft 0kts
31-Mar-18 20:18 43.415414 -124.245421 332 8ft 0kts
31-Mar-18 20:19 43.415414 -124.245421 332 8ft 0kts
31-Mar-18 20:20 43.415414 -124.245421 332 8ft 0kts
31-Mar-18 20:21 43.415414 -124.245421 332 8ft 0kts
31-Mar-18 20:22 43.415191 -124.244335 77 8ft 16kts
31-Mar-18 20:23 43.410206 -124.239948 149 8ft 25kts
31-Mar-18 20:24 43.408964 -124.238792 105 8ft 0kts
31-Mar-18 20:25 43.408972 -124.238585 71 8ft 9kts
31-Mar-18 20:26 43.423706 -124.250982 315 575ft 114kts
31-Mar-18 20:27 43.413150 -124.296479 265 2711ft 141kts
31-Mar-18 20:28 43.414934 -124.348226 319 5057ft 137kts
31-Mar-18 20:29 43.435557 -124.321394 96 7278ft 159kts
31-Mar-18 20:30 43.424933 -124.240579 98 6987ft 248kts
31-Mar-18 20:31 43.415866 -124.145334 71 6988ft 252kts
31-Mar-18 20:32 43.475155 -124.114913 0 6983ft 243kts
31-Mar-18 20:33 43.540116 -124.093325 18 6982ft 245kts
31-Mar-18 20:34 43.602623 -124.058612 20 6982ft 245kts
31-Mar-18 20:35 43.664206 -124.022820 20 6982ft 244kts
31-Mar-18 20:36 43.721637 -123.989031 20 6982ft 244kts
31-Mar-18 20:37 43.782523 -123.953066 20 6982ft 244kts
31-Mar-18 20:38 43.839629 -123.919247 20 6982ft 244kts
31-Mar-18 20:39 43.896626 -123.885429 21 6987ft 243kts
31-Mar-18 20:40 43.937077 -123.861381 21 6991ft 243kts
31-Mar-18 20:41 43.963429 -123.845695 21 6994ft 243kts
31-Mar-18 20:42 43.986867 -123.831731 21 6996ft 243kts
31-Mar-18 20:43 44.036020 -123.802649 23 6727ft 254kts
31-Mar-18 20:44 44.100063 -123.764136 22 6726ft 252kts
31-Mar-18 20:45 44.160717 -123.727904 22 6726ft 252kts
31-Mar-18 20:46 44.224671 -123.689522 22 6726ft 252kts
31-Mar-18 20:47 44.288718 -123.650965 23 6726ft 252kts
31-Mar-18 20:48 44.352731 -123.612299 22 6726ft 252kts
31-Mar-18 20:49 44.416758 -123.573572 22 6726ft 252kts
31-Mar-18 20:50 44.481452 -123.535874 21 6726ft 252kts
31-Mar-18 20:51 44.535698 -123.477985 49 6726ft 252kts
31-Mar-18 20:52 44.590986 -123.418762 27 6727ft 252kts
31-Mar-18 20:53 44.657523 -123.395488 7 6726ft 252kts
31-Mar-18 20:54 44.724913 -123.368814 19 6726ft 252kts
31-Mar-18 20:55 44.788107 -123.332141 23 6726ft 252kts
31-Mar-18 20:56 44.852020 -123.292689 23 6726ft 252kts
31-Mar-18 20:57 44.915892 -123.252944 23 6726ft 252kts
31-Mar-18 20:58 44.979768 -123.213168 23 6824ft 250kts
31-Mar-18 20:59 45.043086 -123.173622 23 6827ft 252kts
31-Mar-18 21:00 45.104843 -123.134950 23 6827ft 252kts
31-Mar-18 21:01 45.155029 -123.103569 23 6827ft 252kts
31-Mar-18 21:02 45.216716 -123.064595 24 5724ft 237kts
31-Mar-18 21:03 45.284588 -123.021877 23 3970ft 230kts
31-Mar-18 21:04 45.291518 -123.017489 23 3792ft 230kts
31-Mar-18 21:05 45.291518 -123.017489 23 3792ft 230kts
31-Mar-18 21:06 45.291518 -123.017489 23 3792ft 230kts
31-Mar-18 21:07 45.300022 -123.012063 24 3574ft 229kts
31-Mar-18 21:08 45.353449 -122.978202 23 2818ft 173kts
31-Mar-18 21:09 45.384105 -122.949333 48 2853ft 117kts
31-Mar-18 21:10 45.405500 -122.913280 49 2827ft 125kts
31-Mar-18 21:11 45.428937 -122.873553 49 2828ft 138kts
31-Mar-18 21:12 45.453104 -122.832476 49 2827ft 139kts
31-Mar-18 21:13 45.477504 -122.790963 49 2827ft 139kts
31-Mar-18 21:14 45.508163 -122.760254 24 2820ft 135kts
31-Mar-18 21:15 45.540774 -122.738468 24 2076ft 129kts
31-Mar-18 21:16 45.571927 -122.717768 24 1137ft 121kts
31-Mar-18 21:17 45.600762 -122.698356 36 550ft 115kts
31-Mar-18 21:18 45.604048 -122.656298 89 422ft 113kts
31-Mar-18 21:19 45.594008 -122.618425 119 29ft 86kts
31-Mar-18 21:20 45.587200 -122.601181 127 20ft 26kts
31-Mar-18 21:21 45.586232 -122.601860 292 20ft 12kts
31-Mar-18 21:22 45.585671 -122.603381 179 20ft 0kts

Navigation Log

Ident Type
Flight plan parsing failed, navigation log unavailable